Time;durP1;ratioP1;P1;durP2;ratioP2;P2;SDS_P1;SDS_P2;PMS_P1;PMS_P2;Temp;Humidity;BMP_temperature;BMP_pressure;BME280_temperature;BME280_humidity;BME280_pressure;Samples;Min_cycle;Max_cycle;Signal;HPM_P1;HPM_P2
2023/09/26 00:05:13;;;;;;;6.95;3.25;;;16.60;1.00;;;;;;10474240;28;20244;-78
2023/09/26 00:10:35;;;;;;;4.22;2.55;;;16.50;1.00;;;;;;10476840;28;20270;-78
2023/09/26 00:15:55;;;;;;;5.53;1.85;;;16.40;1.00;;;;;;10458633;28;20233;-78
2023/09/26 00:21:17;;;;;;;4.45;2.13;;;16.30;3.30;;;;;;10474063;28;20414;-78
2023/09/26 00:26:38;;;;;;;3.22;2.13;;;16.20;42.30;;;;;;10461343;28;20377;-78
2023/09/26 00:32:01;;;;;;;3.30;2.30;;;16.10;91.20;;;;;;10482792;28;20446;-78
2023/09/26 00:37:22;;;;;;;5.13;2.92;;;16.10;99.90;;;;;;10464604;28;20454;-77
2023/09/26 00:42:44;;;;;;;4.00;2.92;;;16.00;99.90;;;;;;10451468;28;20231;-77
2023/09/26 00:48:06;;;;;;;4.38;2.50;;;15.90;99.90;;;;;;10482409;28;20190;-77
2023/09/26 00:53:28;;;;;;;3.55;2.20;;;15.90;99.90;;;;;;10467698;28;20219;-78
2023/09/26 00:58:50;;;;;;;22.75;12.15;;;15.90;99.90;;;;;;10482663;28;20195;-78
2023/09/26 01:04:12;;;;;;;16.02;9.07;;;15.90;99.90;;;;;;10481063;28;20421;-78
2023/09/26 01:09:33;;;;;;;10.98;6.45;;;15.90;99.90;;;;;;10476756;28;20385;-78
2023/09/26 01:14:55;;;;;;;7.00;3.47;;;15.90;99.90;;;;;;10501641;28;20228;-77
2023/09/26 01:20:19;;;;;;;4.75;2.65;;;16.00;99.90;;;;;;10497370;28;20213;-78
2023/09/26 01:25:42;;;;;;;4.07;2.92;;;16.00;99.90;;;;;;10461891;28;20210;-78
2023/09/26 01:31:04;;;;;;;3.72;2.50;;;16.10;99.90;;;;;;10518316;28;20191;-78
2023/09/26 01:36:26;;;;;;;2.78;2.47;;;16.10;99.90;;;;;;10509096;28;20215;-78
2023/09/26 01:41:47;;;;;;;7.72;2.25;;;16.10;99.90;;;;;;10465742;28;20239;-79
2023/09/26 01:47:25;;;;;;;3.08;2.30;;;16.10;99.90;;;;;;10504448;28;20187;-78
2023/09/26 01:52:47;;;;;;;3.22;2.15;;;16.10;99.90;;;;;;10474819;28;20314;-79
2023/09/26 01:58:08;;;;;;;3.88;2.47;;;16.10;99.90;;;;;;10448773;28;20193;-79
2023/09/26 02:03:29;;;;;;;5.18;2.38;;;16.10;99.90;;;;;;10438352;28;20407;-78
2023/09/26 02:08:50;;;;;;;5.13;2.88;;;16.10;99.90;;;;;;10447506;28;20202;-78
2023/09/26 02:14:12;;;;;;;2.75;2.38;;;16.10;99.90;;;;;;10479078;28;20460;-78
2023/09/26 02:19:33;;;;;;;4.22;2.50;;;16.10;99.90;;;;;;10477978;28;20228;-78
2023/09/26 02:24:54;;;;;;;4.75;2.80;;;16.10;99.90;;;;;;10462310;28;20518;-79
2023/09/26 02:30:20;;;;;;;5.22;2.67;;;16.10;99.90;;;;;;10477369;28;20493;-79
2023/09/26 02:35:42;;;;;;;5.43;2.83;;;16.10;99.90;;;;;;10491779;28;20506;-78
2023/09/26 02:41:03;;;;;;;7.32;3.70;;;16.10;99.90;;;;;;10476599;28;20299;-79
2023/09/26 02:46:25;;;;;;;5.78;4.00;;;16.10;99.90;;;;;;10458108;28;20203;-79
2023/09/26 02:51:46;;;;;;;5.63;3.67;;;16.10;99.90;;;;;;10519405;28;20516;-78
2023/09/26 02:57:09;;;;;;;5.20;3.55;;;16.10;99.90;;;;;;10504981;28;20199;-78
2023/09/26 03:02:30;;;;;;;5.07;2.88;;;16.00;99.90;;;;;;10477286;28;20221;-78
2023/09/26 03:07:51;;;;;;;4.00;2.90;;;16.00;99.90;;;;;;10476701;28;20239;-79
2023/09/26 03:13:13;;;;;;;4.13;2.65;;;16.10;99.90;;;;;;10461453;28;20432;-79
2023/09/26 03:18:36;;;;;;;3.45;2.40;;;16.00;99.90;;;;;;10477173;28;20203;-79
2023/09/26 03:23:57;;;;;;;5.22;2.50;;;16.10;99.90;;;;;;10462615;28;20222;-79
2023/09/26 03:29:19;;;;;;;3.55;2.30;;;16.10;99.90;;;;;;10472602;28;20210;-79
2023/09/26 03:34:43;;;;;;;3.70;2.05;;;16.10;99.90;;;;;;10462442;28;20232;-79
2023/09/26 03:40:05;;;;;;;4.05;3.13;;;16.10;99.90;;;;;;10445524;28;20199;-79
2023/09/26 03:45:26;;;;;;;4.65;2.78;;;16.10;99.90;;;;;;10445779;28;20256;-79
2023/09/26 03:50:48;;;;;;;5.63;3.00;;;16.10;99.90;;;;;;10462021;28;20328;-79
2023/09/26 03:56:09;;;;;;;3.55;2.53;;;16.10;99.90;;;;;;10459157;28;20210;-79
2023/09/26 04:01:31;;;;;;;4.30;2.78;;;16.10;99.90;;;;;;10442285;28;20219;-79
2023/09/26 04:06:52;;;;;;;3.75;2.78;;;16.10;99.90;;;;;;10442030;28;20223;-78
2023/09/26 04:12:13;;;;;;;3.70;2.72;;;16.10;99.90;;;;;;10461801;28;20210;-77
2023/09/26 04:17:34;;;;;;;5.10;2.45;;;16.10;99.90;;;;;;10471843;28;20195;-79
2023/09/26 04:22:55;;;;;;;3.97;2.92;;;16.10;1.00;;;;;;10483818;28;20238;-78
2023/09/26 04:28:16;;;;;;;4.72;2.80;;;16.10;99.90;;;;;;10464856;28;20370;-79
2023/09/26 04:33:38;;;;;;;5.20;3.28;;;16.10;99.90;;;;;;10483811;28;20195;-79
2023/09/26 04:38:59;;;;;;;7.97;4.97;;;16.10;1.00;;;;;;10483633;28;20209;-79
2023/09/26 04:44:20;;;;;;;7.10;4.80;;;16.20;1.00;;;;;;10467169;28;20232;-79
2023/09/26 04:49:41;;;;;;;6.68;4.07;;;16.20;1.00;;;;;;10464705;28;20210;-79
2023/09/26 04:55:04;;;;;;;4.72;3.42;;;16.20;1.00;;;;;;10464787;28;20205;-79
2023/09/26 05:00:25;;;;;;;3.92;3.15;;;16.20;1.00;;;;;;10441616;28;20227;-79
2023/09/26 05:05:46;;;;;;;4.95;3.28;;;16.20;1.00;;;;;;10440844;28;20254;-80
2023/09/26 05:11:13;;;;;;;8.48;4.50;;;16.20;1.00;;;;;;10440608;28;20222;-79
2023/09/26 05:16:34;;;;;;;6.05;4.10;;;16.20;1.00;;;;;;10495525;28;20251;-79
2023/09/26 05:21:56;;;;;;;6.10;3.70;;;16.30;1.00;;;;;;10458707;28;20252;-80
2023/09/26 05:27:17;;;;;;;6.22;3.67;;;16.30;1.00;;;;;;10439954;28;20192;-79
2023/09/26 05:32:40;;;;;;;4.15;2.95;;;16.30;1.00;;;;;;10530294;28;20201;-79
2023/09/26 05:38:01;;;;;;;4.90;3.13;;;16.30;1.00;;;;;;10447785;28;20188;-79
2023/09/26 05:43:23;;;;;;;7.60;3.28;;;16.40;1.00;;;;;;10445423;28;20231;-80
2023/09/26 05:48:44;;;;;;;6.88;3.38;;;16.40;1.00;;;;;;10519865;28;20191;-79
2023/09/26 05:54:05;;;;;;;6.63;3.72;;;16.40;1.00;;;;;;10458554;28;20191;-79
2023/09/26 05:59:31;;;;;;;6.05;3.60;;;16.50;1.00;;;;;;10451916;28;20283;-79
2023/09/26 06:04:52;;;;;;;9.48;3.38;;;16.50;1.00;;;;;;10479639;28;20308;-79
2023/09/26 06:10:14;;;;;;;4.53;3.22;;;16.50;1.00;;;;;;10474392;28;20210;-79
2023/09/26 06:15:35;;;;;;;4.28;3.15;;;16.40;1.00;;;;;;10460074;28;20203;-79
2023/09/26 06:20:57;;;;;;;6.32;3.67;;;16.40;1.00;;;;;;10471531;28;20237;-79
2023/09/26 06:26:19;;;;;;;5.65;2.92;;;16.50;1.00;;;;;;10462915;28;20225;-78
2023/09/26 06:31:42;;;;;;;10.80;3.63;;;16.50;1.00;;;;;;10457455;28;20205;-79
2023/09/26 06:37:04;;;;;;;5.07;3.40;;;16.60;1.00;;;;;;10463526;28;20248;-79
2023/09/26 06:42:25;;;;;;;5.03;3.00;;;16.60;1.00;;;;;;10460654;28;20607;-79
2023/09/26 06:47:47;;;;;;;4.68;3.50;;;16.70;1.00;;;;;;10437460;28;20274;-80
2023/09/26 06:53:08;;;;;;;8.45;4.70;;;16.80;1.00;;;;;;10448530;28;20203;-80
2023/09/26 06:58:30;;;;;;;9.98;4.07;;;16.80;1.00;;;;;;10477949;28;20187;-78
2023/09/26 07:03:51;;;;;;;6.47;4.25;;;16.90;1.00;;;;;;10465438;28;20222;-78
2023/09/26 07:09:12;;;;;;;7.40;4.35;;;17.00;99.90;;;;;;10462687;28;20191;-79
2023/09/26 07:14:35;;;;;;;4.50;3.60;;;17.00;99.90;;;;;;10458778;28;20199;-79
2023/09/26 07:19:59;;;;;;;7.97;4.40;;;17.10;99.90;;;;;;10477362;28;20206;-79
2023/09/26 07:25:21;;;;;;;10.05;4.93;;;17.20;99.90;;;;;;10438763;28;20244;-79
2023/09/26 07:30:44;;;;;;;11.52;4.88;;;17.40;99.90;;;;;;10456607;28;20208;-79
2023/09/26 07:36:07;;;;;;;7.07;3.70;;;17.50;99.90;;;;;;10460903;28;20261;-79
2023/09/26 07:41:28;;;;;;;8.13;4.97;;;17.60;99.90;;;;;;10472270;28;20223;-79
2023/09/26 07:46:50;;;;;;;5.82;3.58;;;17.90;99.90;;;;;;10439415;28;20227;-79
2023/09/26 07:52:11;;;;;;;7.50;4.57;;;18.10;33.00;;;;;;10477729;28;20315;-79
2023/09/26 07:57:32;;;;;;;6.82;4.30;;;18.30;1.00;;;;;;10477765;28;20229;-78
2023/09/26 08:02:53;;;;;;;7.18;4.15;;;18.30;1.00;;;;;;10450291;28;20239;-79
2023/09/26 08:08:15;;;;;;;5.90;3.65;;;18.30;1.00;;;;;;10461732;28;20235;-81
2023/09/26 08:13:39;;;;;;;7.63;4.40;;;18.30;1.00;;;;;;10474975;28;20564;-80
2023/09/26 08:19:00;;;;;;;9.48;4.97;;;18.30;59.10;;;;;;10474212;28;20220;-80
2023/09/26 08:24:22;;;;;;;5.72;4.60;;;18.40;1.00;;;;;;10500856;28;20309;-79
2023/09/26 08:29:43;;;;;;;6.45;4.95;;;18.50;1.00;;;;;;10481440;28;20207;-80
2023/09/26 08:35:06;;;;;;;7.70;4.30;;;18.60;1.00;;;;;;10447225;28;20195;-80
2023/09/26 08:40:28;;;;;;;10.00;3.40;;;18.70;1.00;;;;;;10462951;28;20250;-78
2023/09/26 08:45:50;;;;;;;5.82;3.58;;;18.80;1.00;;;;;;10460402;28;20239;-77
2023/09/26 08:51:11;;;;;;;6.10;4.32;;;19.00;1.00;;;;;;10439517;28;20211;-77
2023/09/26 08:56:33;;;;;;;5.43;4.30;;;19.10;1.00;;;;;;10475648;28;20222;-77
2023/09/26 09:01:55;;;;;;;6.13;3.80;;;19.20;1.00;;;;;;10473665;28;20225;-79
2023/09/26 09:07:16;;;;;;;5.25;3.88;;;19.40;1.00;;;;;;10463492;28;20228;-80
2023/09/26 09:12:40;;;;;;;7.15;4.43;;;19.50;1.00;;;;;;10477846;28;20301;-80
2023/09/26 09:18:02;;;;;;;10.50;5.78;;;19.70;1.00;;;;;;10473018;28;20199;-78
2023/09/26 09:23:23;;;;;;;7.40;4.68;;;19.80;1.00;;;;;;10459420;28;20238;-78
2023/09/26 09:28:45;;;;;;;6.65;4.40;;;19.80;1.00;;;;;;10444506;28;20213;-84
2023/09/26 09:34:06;;;;;;;8.38;4.75;;;20.00;1.00;;;;;;10457804;28;20204;-80
2023/09/26 09:39:27;;;;;;;3.78;3.20;;;20.00;1.00;;;;;;10489009;28;20199;-79
2023/09/26 09:44:49;;;;;;;6.13;3.92;;;20.10;1.00;;;;;;10472918;28;20251;-79
2023/09/26 09:50:11;;;;;;;8.52;4.32;;;20.20;1.00;;;;;;10456518;28;20537;-79
2023/09/26 09:55:38;;;;;;;10.05;4.80;;;20.20;1.00;;;;;;10457251;28;20199;-82
2023/09/26 10:01:00;;;;;;;8.90;4.03;;;20.30;1.00;;;;;;10455972;28;20235;-79
2023/09/26 10:06:21;;;;;;;7.47;3.95;;;20.30;1.00;;;;;;10472296;28;20254;-79
2023/09/26 10:11:44;;;;;;;12.40;6.50;;;20.40;1.00;;;;;;10440161;28;20207;-77
2023/09/26 10:17:06;;;;;;;8.00;4.90;;;20.50;1.00;;;;;;10488188;28;20219;-78
2023/09/26 10:22:33;;;;;;;6.72;4.80;;;20.50;1.00;;;;;;10480147;28;20430;-81
2023/09/26 10:27:55;;;;;;;5.93;4.25;;;20.60;1.00;;;;;;10447223;28;20227;-79
2023/09/26 10:33:19;;;;;;;5.93;4.00;;;20.80;1.00;;;;;;10458280;28;20220;-79
2023/09/26 10:38:59;;;;;;;5.80;3.78;;;20.90;1.00;;;;;;10461656;28;20219;-77
2023/09/26 10:44:21;;;;;;;5.55;3.60;;;21.10;1.00;;;;;;10471670;28;20224;-78
2023/09/26 10:49:46;;;;;;;4.28;3.30;;;21.30;1.00;;;;;;10458164;28;20192;-79
2023/09/26 10:55:10;;;;;;;4.93;3.90;;;21.70;1.00;;;;;;10462458;28;20211;-80
2023/09/26 11:00:31;;;;;;;5.05;3.38;;;22.20;1.00;;;;;;10485408;28;20192;-80
2023/09/26 11:05:53;;;;;;;6.53;3.58;;;22.90;99.90;;;;;;10471535;28;20259;-77
2023/09/26 11:11:18;;;;;;;6.82;3.50;;;;;;;;;;10455605;28;20502;-77
2023/09/26 11:16:43;;;;;;;8.40;4.18;;;24.40;99.90;;;;;;10455587;28;20249;-80
2023/09/26 11:22:05;;;;;;;7.97;4.20;;;;;;;;;;10454154;28;20233;-89
2023/09/26 11:27:29;;;;;;;6.65;3.70;;;25.10;1.00;;;;;;10467345;28;20223;-81
2023/09/26 11:32:54;;;;;;;11.73;3.30;;;25.50;99.90;;;;;;10472079;28;20275;-79
2023/09/26 11:38:15;;;;;;;7.28;3.55;;;25.80;99.90;;;;;;10485563;28;20202;-79
2023/09/26 11:43:41;;;;;;;8.30;4.22;;;25.80;99.90;;;;;;10465941;28;20247;-79
2023/09/26 11:49:02;;;;;;;6.55;3.30;;;25.00;99.90;;;;;;10471259;28;20188;-77
2023/09/26 11:54:24;;;;;;;3.95;3.33;;;24.30;99.90;;;;;;10415635;28;20192;-79
2023/09/26 11:59:45;;;;;;;5.57;3.47;;;24.10;99.90;;;;;;10483664;28;20279;-81
2023/09/26 12:05:08;;;;;;;6.22;3.85;;;24.20;99.90;;;;;;10415232;28;20224;-76
2023/09/26 12:10:29;;;;;;;6.15;4.07;;;24.90;99.90;;;;;;10428415;28;20208;-75
2023/09/26 12:15:50;;;;;;;6.28;4.03;;;25.10;99.90;;;;;;10463106;28;20204;-75
2023/09/26 12:21:11;;;;;;;5.47;3.40;;;26.80;99.90;;;;;;10471711;28;20448;-78
2023/09/26 12:26:33;;;;;;;5.28;3.67;;;26.80;99.90;;;;;;10457783;28;20211;-79
2023/09/26 12:31:54;;;;;;;11.80;4.32;;;28.00;1.00;;;;;;10478351;28;20200;-79
2023/09/26 12:37:15;;;;;;;5.80;3.40;;;28.50;28.30;;;;;;10445035;28;20196;-80
2023/09/26 12:42:37;;;;;;;6.93;3.80;;;28.10;1.00;;;;;;10476214;28;20223;-76
2023/09/26 12:47:58;;;;;;;6.43;3.60;;;27.90;1.00;;;;;;10464562;28;20198;-82
2023/09/26 12:53:19;;;;;;;11.98;4.10;;;28.00;1.00;;;;;;10462902;28;20327;-81
2023/09/26 12:58:41;;;;;;;7.15;3.80;;;27.90;1.00;;;;;;10477027;28;20245;-79
2023/09/26 13:04:02;;;;;;;5.05;3.65;;;28.10;1.00;;;;;;10461573;28;20573;-77
2023/09/26 13:09:24;;;;;;;8.43;4.32;;;28.00;1.00;;;;;;10470238;28;20390;-79
2023/09/26 13:14:45;;;;;;;7.55;4.53;;;27.30;1.00;;;;;;10475839;28;20494;-76
2023/09/26 13:20:10;;;;;;;8.05;4.68;;;26.80;1.00;;;;;;10473517;28;20211;-79
2023/09/26 13:25:32;;;;;;;17.17;9.35;;;26.00;1.00;;;;;;10459242;28;20224;-78
2023/09/26 13:30:55;;;;;;;12.50;7.90;;;25.30;99.90;;;;;;10443276;28;20261;-78
2023/09/26 13:36:17;;;;;;;12.68;6.18;;;24.80;99.90;;;;;;10461061;28;20235;-77
2023/09/26 13:41:38;;;;;;;9.88;6.55;;;24.80;99.90;;;;;;10475713;28;20256;-80
2023/09/26 13:47:00;;;;;;;8.98;5.00;;;24.50;99.90;;;;;;10403350;28;20208;-77
2023/09/26 13:52:21;;;;;;;7.38;4.53;;;25.00;99.90;;;;;;10473504;28;20203;-79
2023/09/26 13:57:42;;;;;;;10.88;5.18;;;25.10;99.90;;;;;;10474001;28;20203;-78
2023/09/26 14:03:04;;;;;;;12.43;6.18;;;24.60;99.90;;;;;;10470850;28;20243;-78
2023/09/26 14:08:25;;;;;;;10.80;5.80;;;24.30;99.90;;;;;;10469213;28;20238;-79
2023/09/26 14:13:46;;;;;;;10.68;5.70;;;24.10;99.90;;;;;;10473143;28;20286;-80
2023/09/26 14:19:07;;;;;;;11.75;6.00;;;23.60;99.90;;;;;;10458669;28;20257;-77
2023/09/26 14:24:29;;;;;;;10.73;6.38;;;23.40;99.90;;;;;;10455651;28;20239;-80
2023/09/26 14:30:02;;;;;;;10.23;5.40;;;23.40;99.90;;;;;;10455559;28;20203;-77
2023/09/26 14:35:23;;;;;;;10.10;5.32;;;23.30;99.90;;;;;;10487268;28;20203;-78
2023/09/26 14:40:44;;;;;;;7.20;5.70;;;23.30;99.90;;;;;;10440125;28;20211;-79
2023/09/26 14:46:06;;;;;;;7.60;4.97;;;23.10;99.90;;;;;;10457781;28;20219;-77
2023/09/26 14:51:27;;;;;;;13.38;7.53;;;23.00;99.90;;;;;;10472747;28;20401;-79
2023/09/26 14:56:49;;;;;;;10.82;7.75;;;22.90;1.00;;;;;;10435258;28;20219;-78
2023/09/26 15:02:12;;;;;;;9.98;6.32;;;22.80;1.00;;;;;;10473407;28;20219;-82
2023/09/26 15:07:35;;;;;;;10.82;6.28;;;22.60;1.00;;;;;;10416433;28;20307;-81
2023/09/26 15:12:56;;;;;;;12.25;7.85;;;22.50;1.00;;;;;;10434304;28;20223;-79
2023/09/26 15:18:17;;;;;;;12.85;6.90;;;23.00;1.00;;;;;;10436566;28;20201;-79
2023/09/26 15:23:38;;;;;;;8.15;6.22;;;22.40;6.60;;;;;;10432867;28;20216;-78
2023/09/26 15:28:59;;;;;;;10.88;6.78;;;22.10;1.00;;;;;;10441702;28;20227;-79
2023/09/26 15:34:21;;;;;;;13.15;6.32;;;22.00;1.00;;;;;;10434030;28;20197;-78
2023/09/26 15:39:42;;;;;;;8.25;6.65;;;21.90;99.90;;;;;;10433361;28;20264;-79
2023/09/26 15:45:03;;;;;;;11.20;7.80;;;21.60;1.00;;;;;;10420755;28;20232;-79
2023/09/26 15:50:25;;;;;;;12.07;6.65;;;21.30;1.00;;;;;;10434415;28;20216;-80
2023/09/26 15:55:46;;;;;;;9.73;7.07;;;21.20;2.50;;;;;;10438531;28;20419;-79
2023/09/26 16:01:08;;;;;;;9.95;7.05;;;21.10;30.20;;;;;;10439914;28;20211;-77
2023/09/26 16:06:31;;;;;;;10.93;7.53;;;;;;;;;;10447379;28;20542;-76
2023/09/26 16:11:53;;;;;;;11.82;7.65;;;21.00;99.90;;;;;;10450477;28;20204;-77
2023/09/26 16:17:17;;;;;;;12.13;8.60;;;20.80;99.90;;;;;;10486066;28;20212;-76
2023/09/26 16:22:39;;;;;;;10.43;8.00;;;20.70;99.90;;;;;;10484046;28;20223;-76
2023/09/26 16:28:00;;;;;;;14.02;8.20;;;20.60;99.90;;;;;;10481495;28;20199;-77
2023/09/26 16:33:21;;;;;;;10.35;7.60;;;20.40;1.00;;;;;;10483761;28;20214;-76
2023/09/26 16:38:42;;;;;;;15.20;9.10;;;20.30;1.00;;;;;;10483474;28;20188;-75
2023/09/26 16:44:04;;;;;;;14.40;8.73;;;20.10;1.00;;;;;;10477769;28;20533;-76
2023/09/26 16:49:25;;;;;;;11.50;8.02;;;20.00;1.00;;;;;;10483121;28;20188;-75
2023/09/26 16:54:46;;;;;;;17.48;10.50;;;19.90;1.00;;;;;;10482490;28;20520;-76
2023/09/26 17:00:08;;;;;;;11.75;9.10;;;19.80;35.10;;;;;;10482727;28;20188;-77
2023/09/26 17:05:29;;;;;;;15.23;9.68;;;;;;;;;;10480428;28;20269;-77
2023/09/26 17:10:51;;;;;;;16.23;9.23;;;19.60;99.90;;;;;;10479238;28;20198;-76
2023/09/26 17:16:12;;;;;;;15.50;9.93;;;19.50;1.00;;;;;;10482054;28;20206;-78
2023/09/26 17:21:34;;;;;;;19.27;10.00;;;19.30;1.00;;;;;;10448310;28;20283;-78
2023/09/26 17:26:56;;;;;;;13.88;9.57;;;;;;;;;;10482207;28;20227;-78
2023/09/26 17:32:17;;;;;;;15.00;9.80;;;19.20;1.00;;;;;;10442832;28;20196;-76
2023/09/26 17:37:39;;;;;;;15.65;11.05;;;19.10;99.90;;;;;;10434505;28;20208;-75
2023/09/26 17:43:00;;;;;;;13.52;10.80;;;19.00;1.00;;;;;;10463394;28;20310;-77
2023/09/26 17:48:21;;;;;;;17.75;11.65;;;18.90;99.90;;;;;;10467688;28;20228;-76
2023/09/26 17:53:43;;;;;;;17.55;13.73;;;18.80;1.00;;;;;;10479431;28;20279;-77
2023/09/26 17:59:04;;;;;;;17.13;11.98;;;18.70;1.00;;;;;;10462537;28;20199;-77
2023/09/26 18:04:25;;;;;;;16.77;11.90;;;18.70;1.00;;;;;;10458541;28;20231;-79
2023/09/26 18:09:47;;;;;;;16.77;11.90;;;18.70;1.00;;;;;;10438654;28;20387;-78
2023/09/26 18:15:09;;;;;;;18.17;11.77;;;18.50;99.90;;;;;;10466235;28;20211;-79
2023/09/26 18:20:30;;;;;;;18.25;13.30;;;18.50;1.00;;;;;;10461046;28;20199;-79
2023/09/26 18:25:51;;;;;;;14.95;11.63;;;18.40;43.80;;;;;;10438213;28;20220;-79
2023/09/26 18:31:12;;;;;;;16.48;12.05;;;18.30;99.90;;;;;;10450757;28;20496;-76
2023/09/26 18:36:33;;;;;;;19.58;13.25;;;18.30;1.00;;;;;;10474396;28;20514;-78
2023/09/26 18:41:55;;;;;;;22.88;15.18;;;18.20;99.90;;;;;;10476235;28;20212;-75
2023/09/26 18:47:17;;;;;;;20.55;14.50;;;18.10;1.00;;;;;;10458712;28;20223;-76
2023/09/26 18:52:38;;;;;;;19.02;15.13;;;18.10;1.00;;;;;;10476854;28;20204;-76
2023/09/26 18:58:00;;;;;;;20.10;14.93;;;18.00;99.90;;;;;;10460741;28;20195;-77
2023/09/26 19:03:21;;;;;;;20.27;15.55;;;17.90;99.90;;;;;;10474189;28;20579;-75
2023/09/26 19:08:43;;;;;;;19.77;14.68;;;17.80;99.90;;;;;;10475725;28;20302;-77
2023/09/26 19:14:29;;;;;;;18.75;14.30;;;17.80;1.00;;;;;;10455628;28;20526;-77
2023/09/26 19:19:50;;;;;;;16.02;14.10;;;17.80;5.50;;;;;;10474157;28;20191;-75
2023/09/26 19:25:11;;;;;;;19.77;13.88;;;17.60;1.00;;;;;;10477529;28;20215;-77
2023/09/26 19:30:32;;;;;;;19.27;14.15;;;17.60;1.00;;;;;;10474955;28;20204;-80
2023/09/26 19:35:55;;;;;;;18.25;14.07;;;17.70;1.00;;;;;;10469616;28;20285;-79
2023/09/26 19:41:16;;;;;;;17.45;12.65;;;17.50;1.00;;;;;;10468715;28;20383;-77
2023/09/26 19:46:38;;;;;;;24.08;14.57;;;17.40;1.00;;;;;;10455119;28;20272;-79
2023/09/26 19:51:59;;;;;;;21.77;14.52;;;17.20;10.80;;;;;;10484666;28;20386;-76
2023/09/26 19:57:21;;;;;;;16.70;13.40;;;17.20;1.00;;;;;;10481090;28;20220;-79
2023/09/26 20:02:43;;;;;;;19.15;14.98;;;17.20;99.90;;;;;;10465865;28;20540;-77
2023/09/26 20:08:04;;;;;;;25.48;17.10;;;17.10;1.00;;;;;;10483188;28;20280;-78
2023/09/26 20:13:26;;;;;;;29.50;18.63;;;17.10;1.00;;;;;;10480980;28;20375;-79
2023/09/26 20:18:47;;;;;;;29.13;18.20;;;17.10;1.00;;;;;;10458556;28;20195;-78
2023/09/26 20:24:09;;;;;;;29.35;19.73;;;17.00;1.00;;;;;;10474624;28;20230;-77
2023/09/26 20:29:30;;;;;;;28.08;17.55;;;17.00;1.00;;;;;;10483860;28;20195;-78
2023/09/26 20:34:51;;;;;;;32.00;18.23;;;16.90;1.00;;;;;;10482476;28;20210;-77
2023/09/26 20:40:12;;;;;;;23.65;16.55;;;16.80;1.00;;;;;;10482434;28;20198;-79
2023/09/26 20:45:35;;;;;;;20.60;15.65;;;16.70;1.00;;;;;;10480590;28;20235;-76
2023/09/26 20:50:56;;;;;;;23.63;15.63;;;16.50;1.00;;;;;;10482564;28;20219;-77
2023/09/26 20:56:18;;;;;;;23.85;15.55;;;16.50;99.90;;;;;;10465468;28;20200;-77
2023/09/26 21:01:39;;;;;;;19.95;14.75;;;16.50;1.00;;;;;;10445986;28;20196;-78
2023/09/26 21:07:05;;;;;;;22.33;16.13;;;16.40;94.00;;;;;;10480738;28;20235;-76
2023/09/26 21:12:26;;;;;;;24.17;16.40;;;16.60;1.00;;;;;;10466433;28;20195;-77
2023/09/26 21:17:47;;;;;;;24.88;16.25;;;16.50;99.90;;;;;;10465610;28;20525;-76
2023/09/26 21:23:09;;;;;;;20.27;15.10;;;16.40;1.00;;;;;;10448872;28;20220;-79
2023/09/26 21:28:31;;;;;;;22.40;15.38;;;16.40;99.90;;;;;;10481353;28;20221;-80
2023/09/26 21:33:54;;;;;;;23.60;14.98;;;16.40;1.00;;;;;;10478897;28;20381;-80
2023/09/26 21:39:15;;;;;;;23.33;16.50;;;16.30;99.90;;;;;;10449409;28;20202;-79
2023/09/26 21:44:36;;;;;;;19.95;15.10;;;16.20;1.00;;;;;;10447831;28;20226;-79
2023/09/26 21:50:01;;;;;;;21.33;15.35;;;16.20;99.90;;;;;;10462784;28;20202;-79
2023/09/26 21:55:23;;;;;;;24.90;16.83;;;16.20;99.90;;;;;;10478706;28;20237;-78
2023/09/26 22:00:46;;;;;;;27.67;17.60;;;16.30;1.00;;;;;;10447129;28;20286;-79
2023/09/26 22:06:07;;;;;;;23.75;17.08;;;16.20;1.00;;;;;;10479582;28;20231;-79
2023/09/26 22:11:29;;;;;;;21.17;15.98;;;16.10;1.00;;;;;;10468378;28;20200;-78
2023/09/26 22:16:50;;;;;;;19.98;14.73;;;16.10;1.00;;;;;;10464992;28;20509;-79
2023/09/26 22:22:12;;;;;;;20.15;15.60;;;16.00;95.70;;;;;;10478843;28;20210;-78
2023/09/26 22:27:33;;;;;;;26.75;16.95;;;16.00;1.00;;;;;;10464216;28;20215;-78
2023/09/26 22:32:54;;;;;;;22.80;16.77;;;15.90;1.00;;;;;;10478150;28;20212;-78
2023/09/26 22:38:17;;;;;;;24.85;16.40;;;16.00;99.90;;;;;;10477370;28;20249;-78
2023/09/26 22:43:39;;;;;;;22.73;16.33;;;15.90;99.90;;;;;;10477922;28;20261;-77
2023/09/26 22:49:01;;;;;;;26.20;16.48;;;;;;;;;;10460669;28;20206;-78
2023/09/26 22:54:22;;;;;;;27.77;16.52;;;16.20;1.00;;;;;;10477646;28;20229;-79
2023/09/26 22:59:43;;;;;;;23.05;15.82;;;15.90;99.90;;;;;;10478315;28;20193;-78
2023/09/26 23:05:06;;;;;;;21.83;14.90;;;15.90;1.00;;;;;;10477597;28;20240;-79
2023/09/26 23:10:29;;;;;;;21.58;14.32;;;;;;;;;;10475962;28;20469;-79
2023/09/26 23:15:56;;;;;;;18.98;13.85;;;;;;;;;;10454188;28;20211;-78
2023/09/26 23:21:30;;;;;;;18.13;13.40;;;;;;;;;;10462017;28;20213;-79
2023/09/26 23:27:12;;;;;;;19.88;13.90;;;16.10;1.00;;;;;;10453988;28;20425;-79
2023/09/26 23:32:33;;;;;;;19.63;13.95;;;15.70;1.00;;;;;;10457281;28;20237;-79
2023/09/26 23:37:54;;;;;;;19.80;15.63;;;;;;;;;;10476749;28;20522;-78
2023/09/26 23:43:16;;;;;;;19.73;15.45;;;;;;;;;;10475672;28;20428;-79
2023/09/26 23:48:38;;;;;;;21.05;13.93;;;;;;;;;;10462057;28;20209;-79
2023/09/26 23:53:59;;;;;;;22.52;13.25;;;;;;;;;;10476770;28;20302;-78
2023/09/26 23:59:21;;;;;;;17.35;12.77;;;;;;;;;;10477151;28;20193;-78
